sensor_id;sensor_type;location;lat;lon;timestamp;P1;durP1;ratioP1;P2;durP2;ratioP2
56181;SDS011;51963;46.052;14.544;2023-12-07T00:01:46;49.35;;;22.90;;
56181;SDS011;51963;46.052;14.544;2023-12-07T00:06:40;49.67;;;22.92;;
56181;SDS011;51963;46.052;14.544;2023-12-07T00:09:05;49.50;;;20.65;;
56181;SDS011;51963;46.052;14.544;2023-12-07T00:11:31;48.70;;;21.83;;
56181;SDS011;51963;46.052;14.544;2023-12-07T00:13:56;53.42;;;22.15;;
56181;SDS011;51963;46.052;14.544;2023-12-07T00:16:22;47.47;;;21.58;;
56181;SDS011;51963;46.052;14.544;2023-12-07T00:18:47;43.70;;;20.42;;
56181;SDS011;51963;46.052;14.544;2023-12-07T00:21:13;44.45;;;19.08;;
56181;SDS011;51963;46.052;14.544;2023-12-07T00:23:39;55.55;;;22.73;;
56181;SDS011;51963;46.052;14.544;2023-12-07T00:26:04;52.67;;;21.90;;
56181;SDS011;51963;46.052;14.544;2023-12-07T00:28:30;47.33;;;20.58;;
56181;SDS011;51963;46.052;14.544;2023-12-07T00:30:56;50.60;;;22.95;;
56181;SDS011;51963;46.052;14.544;2023-12-07T00:33:21;43.75;;;20.75;;
56181;SDS011;51963;46.052;14.544;2023-12-07T00:35:47;48.40;;;21.73;;
56181;SDS011;51963;46.052;14.544;2023-12-07T00:38:13;42.80;;;20.33;;
56181;SDS011;51963;46.052;14.544;2023-12-07T00:40:39;44.75;;;20.23;;
56181;SDS011;51963;46.052;14.544;2023-12-07T00:43:05;47.80;;;21.35;;
56181;SDS011;51963;46.052;14.544;2023-12-07T00:45:32;43.22;;;20.15;;
56181;SDS011;51963;46.052;14.544;2023-12-07T00:47:58;45.08;;;19.73;;
56181;SDS011;51963;46.052;14.544;2023-12-07T00:50:23;46.75;;;20.88;;
56181;SDS011;51963;46.052;14.544;2023-12-07T00:52:49;41.38;;;19.83;;
56181;SDS011;51963;46.052;14.544;2023-12-07T00:55:14;48.95;;;21.58;;
56181;SDS011;51963;46.052;14.544;2023-12-07T00:57:40;50.83;;;21.63;;
56181;SDS011;51963;46.052;14.544;2023-12-07T01:00:06;54.15;;;21.67;;
56181;SDS011;51963;46.052;14.544;2023-12-07T01:02:33;46.50;;;20.75;;
56181;SDS011;51963;46.052;14.544;2023-12-07T01:04:59;52.35;;;21.77;;
56181;SDS011;51963;46.052;14.544;2023-12-07T01:07:25;50.42;;;22.20;;
56181;SDS011;51963;46.052;14.544;2023-12-07T01:09:50;51.15;;;23.17;;
56181;SDS011;51963;46.052;14.544;2023-12-07T01:12:16;46.95;;;21.55;;
56181;SDS011;51963;46.052;14.544;2023-12-07T01:14:41;52.53;;;21.75;;
56181;SDS011;51963;46.052;14.544;2023-12-07T01:17:07;54.40;;;24.67;;
56181;SDS011;51963;46.052;14.544;2023-12-07T01:19:32;50.88;;;22.05;;
56181;SDS011;51963;46.052;14.544;2023-12-07T01:21:59;51.08;;;21.75;;
56181;SDS011;51963;46.052;14.544;2023-12-07T01:24:25;47.55;;;21.77;;
56181;SDS011;51963;46.052;14.544;2023-12-07T01:26:50;48.00;;;22.95;;
56181;SDS011;51963;46.052;14.544;2023-12-07T01:29:16;53.03;;;22.88;;
56181;SDS011;51963;46.052;14.544;2023-12-07T01:31:43;50.72;;;21.55;;
56181;SDS011;51963;46.052;14.544;2023-12-07T01:34:09;53.50;;;22.63;;
56181;SDS011;51963;46.052;14.544;2023-12-07T01:36:35;50.35;;;22.48;;
56181;SDS011;51963;46.052;14.544;2023-12-07T01:39:00;51.72;;;21.05;;
56181;SDS011;51963;46.052;14.544;2023-12-07T01:41:26;48.72;;;21.42;;
56181;SDS011;51963;46.052;14.544;2023-12-07T01:43:52;47.35;;;20.50;;
56181;SDS011;51963;46.052;14.544;2023-12-07T01:46:17;48.40;;;22.13;;
56181;SDS011;51963;46.052;14.544;2023-12-07T01:48:43;44.70;;;20.25;;
56181;SDS011;51963;46.052;14.544;2023-12-07T01:51:13;48.47;;;21.33;;
56181;SDS011;51963;46.052;14.544;2023-12-07T01:53:40;46.25;;;20.60;;
56181;SDS011;51963;46.052;14.544;2023-12-07T01:56:05;42.95;;;20.35;;
56181;SDS011;51963;46.052;14.544;2023-12-07T01:58:33;43.63;;;19.93;;
56181;SDS011;51963;46.052;14.544;2023-12-07T02:01:00;45.80;;;19.92;;
56181;SDS011;51963;46.052;14.544;2023-12-07T02:03:27;42.90;;;20.33;;
56181;SDS011;51963;46.052;14.544;2023-12-07T02:05:55;44.65;;;19.90;;
56181;SDS011;51963;46.052;14.544;2023-12-07T02:08:22;42.40;;;19.25;;
56181;SDS011;51963;46.052;14.544;2023-12-07T02:10:48;40.78;;;18.45;;
56181;SDS011;51963;46.052;14.544;2023-12-07T02:13:13;46.60;;;20.15;;
56181;SDS011;51963;46.052;14.544;2023-12-07T02:15:39;43.80;;;18.80;;
56181;SDS011;51963;46.052;14.544;2023-12-07T02:18:16;45.38;;;19.35;;
56181;SDS011;51963;46.052;14.544;2023-12-07T02:20:49;42.53;;;18.25;;
56181;SDS011;51963;46.052;14.544;2023-12-07T02:23:18;48.03;;;20.67;;
56181;SDS011;51963;46.052;14.544;2023-12-07T02:25:53;47.58;;;19.63;;
56181;SDS011;51963;46.052;14.544;2023-12-07T02:28:20;39.47;;;18.15;;
56181;SDS011;51963;46.052;14.544;2023-12-07T02:30:46;41.28;;;18.85;;
56181;SDS011;51963;46.052;14.544;2023-12-07T02:33:12;41.13;;;19.38;;
56181;SDS011;51963;46.052;14.544;2023-12-07T02:35:38;39.85;;;19.70;;
56181;SDS011;51963;46.052;14.544;2023-12-07T02:38:06;45.67;;;20.27;;
56181;SDS011;51963;46.052;14.544;2023-12-07T02:40:33;42.60;;;19.25;;
56181;SDS011;51963;46.052;14.544;2023-12-07T02:43:00;50.85;;;20.27;;
56181;SDS011;51963;46.052;14.544;2023-12-07T02:45:26;42.10;;;20.00;;
56181;SDS011;51963;46.052;14.544;2023-12-07T02:47:52;41.45;;;18.45;;
56181;SDS011;51963;46.052;14.544;2023-12-07T02:50:19;46.08;;;21.25;;
56181;SDS011;51963;46.052;14.544;2023-12-07T02:52:45;49.63;;;21.13;;
56181;SDS011;51963;46.052;14.544;2023-12-07T02:55:11;48.85;;;20.00;;
56181;SDS011;51963;46.052;14.544;2023-12-07T03:00:05;48.60;;;18.77;;
56181;SDS011;51963;46.052;14.544;2023-12-07T03:02:37;50.55;;;19.92;;
56181;SDS011;51963;46.052;14.544;2023-12-07T03:05:06;49.45;;;20.45;;
56181;SDS011;51963;46.052;14.544;2023-12-07T03:07:32;50.88;;;20.83;;
56181;SDS011;51963;46.052;14.544;2023-12-07T03:09:59;46.67;;;19.38;;
56181;SDS011;51963;46.052;14.544;2023-12-07T03:12:24;49.63;;;20.63;;
56181;SDS011;51963;46.052;14.544;2023-12-07T03:14:50;49.38;;;20.30;;
56181;SDS011;51963;46.052;14.544;2023-12-07T03:17:16;43.08;;;19.40;;
56181;SDS011;51963;46.052;14.544;2023-12-07T03:19:43;47.53;;;21.00;;
56181;SDS011;51963;46.052;14.544;2023-12-07T03:22:09;43.03;;;19.23;;
56181;SDS011;51963;46.052;14.544;2023-12-07T03:24:35;47.33;;;19.35;;
56181;SDS011;51963;46.052;14.544;2023-12-07T03:27:01;40.30;;;17.48;;
56181;SDS011;51963;46.052;14.544;2023-12-07T03:29:27;45.35;;;19.00;;
56181;SDS011;51963;46.052;14.544;2023-12-07T03:31:53;41.30;;;18.33;;
56181;SDS011;51963;46.052;14.544;2023-12-07T03:34:18;41.85;;;18.30;;
56181;SDS011;51963;46.052;14.544;2023-12-07T03:36:47;42.80;;;19.23;;
56181;SDS011;51963;46.052;14.544;2023-12-07T03:39:14;41.22;;;18.65;;
56181;SDS011;51963;46.052;14.544;2023-12-07T03:41:41;43.78;;;18.27;;
56181;SDS011;51963;46.052;14.544;2023-12-07T03:44:07;44.72;;;19.63;;
56181;SDS011;51963;46.052;14.544;2023-12-07T03:46:32;40.38;;;17.92;;
56181;SDS011;51963;46.052;14.544;2023-12-07T03:48:58;40.85;;;16.80;;
56181;SDS011;51963;46.052;14.544;2023-12-07T03:51:26;43.92;;;19.33;;
56181;SDS011;51963;46.052;14.544;2023-12-07T03:53:51;39.50;;;18.15;;
56181;SDS011;51963;46.052;14.544;2023-12-07T03:56:27;44.75;;;19.23;;
56181;SDS011;51963;46.052;14.544;2023-12-07T03:58:54;44.55;;;18.75;;
56181;SDS011;51963;46.052;14.544;2023-12-07T04:01:27;45.03;;;19.02;;
56181;SDS011;51963;46.052;14.544;2023-12-07T04:03:55;43.50;;;18.92;;
56181;SDS011;51963;46.052;14.544;2023-12-07T04:06:21;46.25;;;20.33;;
56181;SDS011;51963;46.052;14.544;2023-12-07T04:08:48;44.35;;;18.38;;
56181;SDS011;51963;46.052;14.544;2023-12-07T04:11:14;44.60;;;18.77;;
56181;SDS011;51963;46.052;14.544;2023-12-07T04:13:40;44.50;;;18.77;;
56181;SDS011;51963;46.052;14.544;2023-12-07T04:16:07;41.20;;;18.30;;
56181;SDS011;51963;46.052;14.544;2023-12-07T04:18:33;42.47;;;18.10;;
56181;SDS011;51963;46.052;14.544;2023-12-07T04:20:58;41.83;;;16.88;;
56181;SDS011;51963;46.052;14.544;2023-12-07T04:23:25;42.00;;;18.80;;
56181;SDS011;51963;46.052;14.544;2023-12-07T04:25:50;45.90;;;17.38;;
56181;SDS011;51963;46.052;14.544;2023-12-07T04:28:16;41.58;;;18.25;;
56181;SDS011;51963;46.052;14.544;2023-12-07T04:30:42;43.90;;;19.45;;
56181;SDS011;51963;46.052;14.544;2023-12-07T04:33:07;47.00;;;19.20;;
56181;SDS011;51963;46.052;14.544;2023-12-07T04:35:33;46.65;;;18.83;;
56181;SDS011;51963;46.052;14.544;2023-12-07T04:37:59;41.28;;;18.08;;
56181;SDS011;51963;46.052;14.544;2023-12-07T04:40:25;49.28;;;19.00;;
56181;SDS011;51963;46.052;14.544;2023-12-07T04:42:51;44.88;;;18.13;;
56181;SDS011;51963;46.052;14.544;2023-12-07T04:45:17;40.33;;;18.15;;
56181;SDS011;51963;46.052;14.544;2023-12-07T04:47:43;40.90;;;17.55;;
56181;SDS011;51963;46.052;14.544;2023-12-07T04:50:09;51.85;;;20.02;;
56181;SDS011;51963;46.052;14.544;2023-12-07T04:52:37;47.55;;;19.92;;
56181;SDS011;51963;46.052;14.544;2023-12-07T04:55:03;50.03;;;19.10;;
56181;SDS011;51963;46.052;14.544;2023-12-07T04:57:32;50.65;;;20.27;;
56181;SDS011;51963;46.052;14.544;2023-12-07T04:59:58;43.50;;;17.73;;
56181;SDS011;51963;46.052;14.544;2023-12-07T05:02:24;40.47;;;18.08;;
56181;SDS011;51963;46.052;14.544;2023-12-07T05:04:50;43.55;;;17.73;;
56181;SDS011;51963;46.052;14.544;2023-12-07T05:07:15;41.35;;;17.85;;
56181;SDS011;51963;46.052;14.544;2023-12-07T05:09:41;42.50;;;17.35;;
56181;SDS011;51963;46.052;14.544;2023-12-07T05:12:06;41.90;;;17.77;;
56181;SDS011;51963;46.052;14.544;2023-12-07T05:14:32;42.10;;;16.75;;
56181;SDS011;51963;46.052;14.544;2023-12-07T05:16:58;46.05;;;18.30;;
56181;SDS011;51963;46.052;14.544;2023-12-07T05:19:24;49.20;;;20.17;;
56181;SDS011;51963;46.052;14.544;2023-12-07T05:21:50;55.42;;;23.83;;
56181;SDS011;51963;46.052;14.544;2023-12-07T05:24:17;48.75;;;19.50;;
56181;SDS011;51963;46.052;14.544;2023-12-07T05:26:43;45.65;;;18.05;;
56181;SDS011;51963;46.052;14.544;2023-12-07T05:29:11;48.40;;;19.83;;
56181;SDS011;51963;46.052;14.544;2023-12-07T05:31:38;45.13;;;19.85;;
56181;SDS011;51963;46.052;14.544;2023-12-07T05:34:04;46.55;;;19.02;;
56181;SDS011;51963;46.052;14.544;2023-12-07T05:36:30;43.58;;;18.42;;
56181;SDS011;51963;46.052;14.544;2023-12-07T05:38:59;44.20;;;18.35;;
56181;SDS011;51963;46.052;14.544;2023-12-07T05:41:25;40.05;;;17.65;;
56181;SDS011;51963;46.052;14.544;2023-12-07T05:43:51;39.22;;;17.23;;
56181;SDS011;51963;46.052;14.544;2023-12-07T05:46:18;40.08;;;16.52;;
56181;SDS011;51963;46.052;14.544;2023-12-07T05:48:44;43.40;;;17.42;;
56181;SDS011;51963;46.052;14.544;2023-12-07T05:51:13;42.90;;;16.65;;
56181;SDS011;51963;46.052;14.544;2023-12-07T05:53:42;37.00;;;16.58;;
56181;SDS011;51963;46.052;14.544;2023-12-07T05:56:09;41.17;;;16.38;;
56181;SDS011;51963;46.052;14.544;2023-12-07T05:58:34;39.13;;;17.23;;
56181;SDS011;51963;46.052;14.544;2023-12-07T06:01:00;45.53;;;17.73;;
56181;SDS011;51963;46.052;14.544;2023-12-07T06:03:27;40.58;;;16.77;;
56181;SDS011;51963;46.052;14.544;2023-12-07T06:05:53;39.30;;;17.60;;
56181;SDS011;51963;46.052;14.544;2023-12-07T06:08:19;41.20;;;17.10;;
56181;SDS011;51963;46.052;14.544;2023-12-07T06:10:44;45.00;;;18.88;;
56181;SDS011;51963;46.052;14.544;2023-12-07T06:13:10;40.30;;;16.40;;
56181;SDS011;51963;46.052;14.544;2023-12-07T06:15:36;48.60;;;18.92;;
56181;SDS011;51963;46.052;14.544;2023-12-07T06:18:02;48.70;;;19.27;;
56181;SDS011;51963;46.052;14.544;2023-12-07T06:20:28;47.85;;;18.80;;
56181;SDS011;51963;46.052;14.544;2023-12-07T06:22:54;42.92;;;18.45;;
56181;SDS011;51963;46.052;14.544;2023-12-07T06:25:20;43.85;;;18.42;;
56181;SDS011;51963;46.052;14.544;2023-12-07T06:27:45;47.40;;;19.98;;
56181;SDS011;51963;46.052;14.544;2023-12-07T06:30:11;47.58;;;19.60;;
56181;SDS011;51963;46.052;14.544;2023-12-07T06:32:37;49.13;;;19.13;;
56181;SDS011;51963;46.052;14.544;2023-12-07T06:35:03;54.13;;;20.77;;
56181;SDS011;51963;46.052;14.544;2023-12-07T06:37:29;51.80;;;20.75;;
56181;SDS011;51963;46.052;14.544;2023-12-07T06:39:58;50.88;;;20.55;;
56181;SDS011;51963;46.052;14.544;2023-12-07T06:42:25;48.53;;;21.00;;
56181;SDS011;51963;46.052;14.544;2023-12-07T06:44:51;50.65;;;19.33;;
56181;SDS011;51963;46.052;14.544;2023-12-07T06:47:19;47.50;;;18.83;;
56181;SDS011;51963;46.052;14.544;2023-12-07T06:49:45;46.83;;;18.77;;
56181;SDS011;51963;46.052;14.544;2023-12-07T06:52:11;52.78;;;21.02;;
56181;SDS011;51963;46.052;14.544;2023-12-07T06:54:37;51.90;;;19.85;;
56181;SDS011;51963;46.052;14.544;2023-12-07T06:57:04;51.60;;;19.33;;
56181;SDS011;51963;46.052;14.544;2023-12-07T06:59:32;45.60;;;18.52;;
56181;SDS011;51963;46.052;14.544;2023-12-07T07:01:59;46.63;;;19.33;;
56181;SDS011;51963;46.052;14.544;2023-12-07T07:04:24;47.03;;;18.98;;
56181;SDS011;51963;46.052;14.544;2023-12-07T07:06:50;45.47;;;19.10;;
56181;SDS011;51963;46.052;14.544;2023-12-07T07:09:17;48.72;;;19.40;;
56181;SDS011;51963;46.052;14.544;2023-12-07T07:11:46;48.70;;;20.25;;
56181;SDS011;51963;46.052;14.544;2023-12-07T07:14:13;53.00;;;20.15;;
56181;SDS011;51963;46.052;14.544;2023-12-07T07:16:38;49.15;;;19.65;;
56181;SDS011;51963;46.052;14.544;2023-12-07T07:19:04;54.80;;;20.75;;
56181;SDS011;51963;46.052;14.544;2023-12-07T07:21:29;52.72;;;21.00;;
56181;SDS011;51963;46.052;14.544;2023-12-07T07:23:55;56.67;;;21.65;;
56181;SDS011;51963;46.052;14.544;2023-12-07T07:26:21;55.40;;;20.35;;
56181;SDS011;51963;46.052;14.544;2023-12-07T07:28:47;56.05;;;22.33;;
56181;SDS011;51963;46.052;14.544;2023-12-07T07:31:13;58.70;;;21.65;;
56181;SDS011;51963;46.052;14.544;2023-12-07T07:33:38;64.45;;;22.92;;
56181;SDS011;51963;46.052;14.544;2023-12-07T07:36:04;57.08;;;22.25;;
56181;SDS011;51963;46.052;14.544;2023-12-07T07:38:29;64.28;;;24.27;;
56181;SDS011;51963;46.052;14.544;2023-12-07T07:40:57;62.00;;;23.90;;
56181;SDS011;51963;46.052;14.544;2023-12-07T07:43:23;64.25;;;23.02;;
56181;SDS011;51963;46.052;14.544;2023-12-07T07:45:49;62.13;;;23.27;;
56181;SDS011;51963;46.052;14.544;2023-12-07T07:48:37;64.25;;;23.52;;
56181;SDS011;51963;46.052;14.544;2023-12-07T07:51:04;54.60;;;22.13;;
56181;SDS011;51963;46.052;14.544;2023-12-07T07:53:30;46.63;;;18.80;;
56181;SDS011;51963;46.052;14.544;2023-12-07T07:55:55;49.78;;;20.85;;
56181;SDS011;51963;46.052;14.544;2023-12-07T07:58:21;50.47;;;19.73;;
56181;SDS011;51963;46.052;14.544;2023-12-07T08:00:47;46.13;;;19.98;;
56181;SDS011;51963;46.052;14.544;2023-12-07T08:03:12;56.38;;;20.30;;
56181;SDS011;51963;46.052;14.544;2023-12-07T08:05:38;57.85;;;21.95;;
56181;SDS011;51963;46.052;14.544;2023-12-07T08:08:04;57.22;;;21.90;;
56181;SDS011;51963;46.052;14.544;2023-12-07T08:10:29;54.35;;;21.58;;
56181;SDS011;51963;46.052;14.544;2023-12-07T08:12:55;54.30;;;21.58;;
56181;SDS011;51963;46.052;14.544;2023-12-07T08:15:20;51.10;;;20.17;;
56181;SDS011;51963;46.052;14.544;2023-12-07T08:17:47;56.30;;;20.42;;
56181;SDS011;51963;46.052;14.544;2023-12-07T08:20:12;49.50;;;20.05;;
56181;SDS011;51963;46.052;14.544;2023-12-07T08:22:39;50.00;;;19.23;;
56181;SDS011;51963;46.052;14.544;2023-12-07T08:25:09;54.60;;;21.30;;
56181;SDS011;51963;46.052;14.544;2023-12-07T08:27:39;45.67;;;18.25;;
56181;SDS011;51963;46.052;14.544;2023-12-07T08:30:05;52.95;;;19.00;;
56181;SDS011;51963;46.052;14.544;2023-12-07T08:32:31;55.97;;;21.10;;
56181;SDS011;51963;46.052;14.544;2023-12-07T08:34:57;53.60;;;19.42;;
56181;SDS011;51963;46.052;14.544;2023-12-07T08:37:23;58.40;;;19.88;;
56181;SDS011;51963;46.052;14.544;2023-12-07T08:39:49;53.85;;;19.63;;
56181;SDS011;51963;46.052;14.544;2023-12-07T08:42:15;54.20;;;20.67;;
56181;SDS011;51963;46.052;14.544;2023-12-07T08:44:40;53.03;;;19.42;;
56181;SDS011;51963;46.052;14.544;2023-12-07T08:47:07;57.78;;;20.90;;
56181;SDS011;51963;46.052;14.544;2023-12-07T08:49:36;58.22;;;21.35;;
56181;SDS011;51963;46.052;14.544;2023-12-07T08:52:02;59.58;;;22.25;;
56181;SDS011;51963;46.052;14.544;2023-12-07T08:54:28;68.57;;;23.02;;
56181;SDS011;51963;46.052;14.544;2023-12-07T08:56:54;64.40;;;24.30;;
56181;SDS011;51963;46.052;14.544;2023-12-07T08:59:20;60.65;;;21.77;;
56181;SDS011;51963;46.052;14.544;2023-12-07T09:01:46;61.70;;;21.95;;
56181;SDS011;51963;46.052;14.544;2023-12-07T09:04:12;56.75;;;20.90;;
56181;SDS011;51963;46.052;14.544;2023-12-07T09:06:40;64.55;;;23.33;;
56181;SDS011;51963;46.052;14.544;2023-12-07T09:09:06;60.78;;;22.30;;
56181;SDS011;51963;46.052;14.544;2023-12-07T09:11:31;65.65;;;23.60;;
56181;SDS011;51963;46.052;14.544;2023-12-07T09:13:57;67.72;;;25.10;;
56181;SDS011;51963;46.052;14.544;2023-12-07T09:16:24;64.63;;;23.40;;
56181;SDS011;51963;46.052;14.544;2023-12-07T09:18:51;64.43;;;23.80;;
56181;SDS011;51963;46.052;14.544;2023-12-07T09:21:17;62.83;;;23.58;;
56181;SDS011;51963;46.052;14.544;2023-12-07T09:23:42;60.63;;;23.38;;
56181;SDS011;51963;46.052;14.544;2023-12-07T09:26:08;64.32;;;23.13;;
56181;SDS011;51963;46.052;14.544;2023-12-07T09:28:34;65.13;;;24.30;;
56181;SDS011;51963;46.052;14.544;2023-12-07T09:30:59;70.60;;;24.10;;
56181;SDS011;51963;46.052;14.544;2023-12-07T09:33:25;62.95;;;23.98;;
56181;SDS011;51963;46.052;14.544;2023-12-07T09:35:51;67.13;;;25.40;;
56181;SDS011;51963;46.052;14.544;2023-12-07T09:38:17;68.70;;;25.27;;
56181;SDS011;51963;46.052;14.544;2023-12-07T09:40:43;74.32;;;26.05;;
56181;SDS011;51963;46.052;14.544;2023-12-07T09:43:13;62.15;;;25.00;;
56181;SDS011;51963;46.052;14.544;2023-12-07T09:45:39;71.10;;;26.15;;
56181;SDS011;51963;46.052;14.544;2023-12-07T09:48:05;73.60;;;27.00;;
56181;SDS011;51963;46.052;14.544;2023-12-07T09:50:33;74.00;;;26.70;;
56181;SDS011;51963;46.052;14.544;2023-12-07T09:53:29;68.10;;;25.73;;
56181;SDS011;51963;46.052;14.544;2023-12-07T10:01:38;70.40;;;26.70;;
56181;SDS011;51963;46.052;14.544;2023-12-07T10:04:20;74.38;;;28.05;;
56181;SDS011;51963;46.052;14.544;2023-12-07T10:06:49;72.65;;;27.27;;
56181;SDS011;51963;46.052;14.544;2023-12-07T10:09:15;71.78;;;26.30;;
56181;SDS011;51963;46.052;14.544;2023-12-07T10:11:41;74.60;;;26.92;;
56181;SDS011;51963;46.052;14.544;2023-12-07T10:14:08;71.72;;;27.45;;
56181;SDS011;51963;46.052;14.544;2023-12-07T10:16:36;72.30;;;27.58;;
56181;SDS011;51963;46.052;14.544;2023-12-07T10:19:15;76.13;;;27.95;;
56181;SDS011;51963;46.052;14.544;2023-12-07T10:22:24;70.13;;;26.02;;
56181;SDS011;51963;46.052;14.544;2023-12-07T10:25:00;65.90;;;25.45;;
56181;SDS011;51963;46.052;14.544;2023-12-07T10:28:22;70.57;;;26.08;;
56181;SDS011;51963;46.052;14.544;2023-12-07T10:30:48;73.05;;;26.95;;
56181;SDS011;51963;46.052;14.544;2023-12-07T10:33:13;68.97;;;25.95;;
56181;SDS011;51963;46.052;14.544;2023-12-07T10:35:39;76.50;;;26.95;;
56181;SDS011;51963;46.052;14.544;2023-12-07T10:38:06;71.07;;;27.88;;
56181;SDS011;51963;46.052;14.544;2023-12-07T10:40:32;73.70;;;26.25;;
56181;SDS011;51963;46.052;14.544;2023-12-07T10:42:58;78.25;;;26.30;;
56181;SDS011;51963;46.052;14.544;2023-12-07T10:45:29;71.50;;;27.02;;
56181;SDS011;51963;46.052;14.544;2023-12-07T10:48:05;80.22;;;26.55;;
56181;SDS011;51963;46.052;14.544;2023-12-07T10:50:40;66.00;;;26.98;;
56181;SDS011;51963;46.052;14.544;2023-12-07T10:53:09;63.80;;;24.77;;
56181;SDS011;51963;46.052;14.544;2023-12-07T10:55:44;62.65;;;24.48;;
56181;SDS011;51963;46.052;14.544;2023-12-07T10:58:29;62.10;;;25.35;;
56181;SDS011;51963;46.052;14.544;2023-12-07T11:01:01;65.10;;;25.83;;
56181;SDS011;51963;46.052;14.544;2023-12-07T11:03:28;62.53;;;23.67;;
56181;SDS011;51963;46.052;14.544;2023-12-07T11:05:55;67.07;;;25.23;;
56181;SDS011;51963;46.052;14.544;2023-12-07T11:13:47;65.75;;;25.05;;
56181;SDS011;51963;46.052;14.544;2023-12-07T11:16:24;68.90;;;26.42;;
56181;SDS011;51963;46.052;14.544;2023-12-07T11:19:05;63.10;;;23.70;;
56181;SDS011;51963;46.052;14.544;2023-12-07T11:21:31;61.30;;;23.88;;
56181;SDS011;51963;46.052;14.544;2023-12-07T11:24:00;63.50;;;23.52;;
56181;SDS011;51963;46.052;14.544;2023-12-07T11:26:27;65.32;;;23.35;;
56181;SDS011;51963;46.052;14.544;2023-12-07T11:28:53;57.65;;;22.73;;
56181;SDS011;51963;46.052;14.544;2023-12-07T11:31:20;58.10;;;22.48;;
56181;SDS011;51963;46.052;14.544;2023-12-07T11:33:46;54.55;;;22.08;;
56181;SDS011;51963;46.052;14.544;2023-12-07T11:36:13;60.15;;;22.48;;
56181;SDS011;51963;46.052;14.544;2023-12-07T11:41:40;58.42;;;22.08;;
56181;SDS011;51963;46.052;14.544;2023-12-07T11:44:09;62.75;;;23.70;;
56181;SDS011;51963;46.052;14.544;2023-12-07T11:46:36;59.92;;;23.98;;
56181;SDS011;51963;46.052;14.544;2023-12-07T11:49:02;59.05;;;22.42;;
56181;SDS011;51963;46.052;14.544;2023-12-07T11:51:29;62.47;;;24.05;;
56181;SDS011;51963;46.052;14.544;2023-12-07T11:53:59;63.72;;;23.77;;
56181;SDS011;51963;46.052;14.544;2023-12-07T11:56:25;66.25;;;26.35;;
56181;SDS011;51963;46.052;14.544;2023-12-07T11:58:51;67.50;;;25.70;;
56181;SDS011;51963;46.052;14.544;2023-12-07T12:01:17;66.10;;;25.95;;
56181;SDS011;51963;46.052;14.544;2023-12-07T12:03:43;73.28;;;25.45;;
56181;SDS011;51963;46.052;14.544;2023-12-07T12:06:09;70.50;;;26.73;;
56181;SDS011;51963;46.052;14.544;2023-12-07T12:08:38;74.78;;;27.67;;
56181;SDS011;51963;46.052;14.544;2023-12-07T12:11:10;61.50;;;24.50;;
56181;SDS011;51963;46.052;14.544;2023-12-07T12:13:36;74.47;;;24.90;;
56181;SDS011;51963;46.052;14.544;2023-12-07T12:16:02;72.22;;;25.58;;
56181;SDS011;51963;46.052;14.544;2023-12-07T12:18:28;64.95;;;22.88;;
56181;SDS011;51963;46.052;14.544;2023-12-07T12:20:56;68.00;;;25.05;;
56181;SDS011;51963;46.052;14.544;2023-12-07T12:23:28;65.22;;;23.98;;
56181;SDS011;51963;46.052;14.544;2023-12-07T12:25:54;68.93;;;25.73;;
56181;SDS011;51963;46.052;14.544;2023-12-07T12:28:20;68.00;;;25.50;;
56181;SDS011;51963;46.052;14.544;2023-12-07T12:30:48;68.25;;;25.65;;
56181;SDS011;51963;46.052;14.544;2023-12-07T12:33:14;76.55;;;26.65;;
56181;SDS011;51963;46.052;14.544;2023-12-07T12:35:39;66.88;;;24.88;;
56181;SDS011;51963;46.052;14.544;2023-12-07T12:38:12;70.07;;;25.98;;
56181;SDS011;51963;46.052;14.544;2023-12-07T12:40:38;63.92;;;24.45;;
56181;SDS011;51963;46.052;14.544;2023-12-07T12:43:04;69.20;;;25.42;;
56181;SDS011;51963;46.052;14.544;2023-12-07T12:45:30;72.30;;;25.80;;
56181;SDS011;51963;46.052;14.544;2023-12-07T12:48:00;63.25;;;24.63;;
56181;SDS011;51963;46.052;14.544;2023-12-07T12:50:59;59.35;;;22.75;;
56181;SDS011;51963;46.052;14.544;2023-12-07T12:53:21;68.32;;;25.00;;
56181;SDS011;51963;46.052;14.544;2023-12-07T12:55:56;69.50;;;25.45;;
56181;SDS011;51963;46.052;14.544;2023-12-07T12:58:23;70.03;;;24.85;;
56181;SDS011;51963;46.052;14.544;2023-12-07T13:00:49;74.25;;;27.85;;
56181;SDS011;51963;46.052;14.544;2023-12-07T13:03:15;72.10;;;27.02;;
56181;SDS011;51963;46.052;14.544;2023-12-07T13:05:42;77.90;;;27.08;;
56181;SDS011;51963;46.052;14.544;2023-12-07T13:08:08;77.65;;;27.33;;
56181;SDS011;51963;46.052;14.544;2023-12-07T13:10:34;74.68;;;26.75;;
56181;SDS011;51963;46.052;14.544;2023-12-07T13:13:00;63.38;;;24.25;;
56181;SDS011;51963;46.052;14.544;2023-12-07T13:15:30;68.63;;;26.27;;
56181;SDS011;51963;46.052;14.544;2023-12-07T13:18:08;62.15;;;24.83;;
56181;SDS011;51963;46.052;14.544;2023-12-07T13:20:34;69.65;;;25.10;;
56181;SDS011;51963;46.052;14.544;2023-12-07T13:23:05;69.95;;;25.90;;
56181;SDS011;51963;46.052;14.544;2023-12-07T13:25:32;63.70;;;25.42;;
56181;SDS011;51963;46.052;14.544;2023-12-07T13:27:58;75.25;;;26.92;;
56181;SDS011;51963;46.052;14.544;2023-12-07T13:30:41;66.25;;;25.27;;
56181;SDS011;51963;46.052;14.544;2023-12-07T13:33:07;65.65;;;23.20;;
56181;SDS011;51963;46.052;14.544;2023-12-07T13:35:37;57.30;;;21.63;;
56181;SDS011;51963;46.052;14.544;2023-12-07T13:38:15;67.68;;;24.25;;
56181;SDS011;51963;46.052;14.544;2023-12-07T13:40:45;58.88;;;22.38;;
56181;SDS011;51963;46.052;14.544;2023-12-07T13:43:12;66.60;;;22.70;;
56181;SDS011;51963;46.052;14.544;2023-12-07T13:45:38;66.15;;;23.75;;
56181;SDS011;51963;46.052;14.544;2023-12-07T13:48:07;61.42;;;22.20;;
56181;SDS011;51963;46.052;14.544;2023-12-07T13:50:33;61.05;;;21.88;;
56181;SDS011;51963;46.052;14.544;2023-12-07T13:55:28;60.20;;;21.75;;
56181;SDS011;51963;46.052;14.544;2023-12-07T13:57:54;58.33;;;21.92;;
56181;SDS011;51963;46.052;14.544;2023-12-07T14:00:21;54.90;;;23.67;;
56181;SDS011;51963;46.052;14.544;2023-12-07T14:02:47;62.90;;;23.08;;
56181;SDS011;51963;46.052;14.544;2023-12-07T14:05:13;63.42;;;23.25;;
56181;SDS011;51963;46.052;14.544;2023-12-07T14:07:43;60.95;;;23.90;;
56181;SDS011;51963;46.052;14.544;2023-12-07T14:10:13;58.63;;;22.98;;
56181;SDS011;51963;46.052;14.544;2023-12-07T14:12:43;62.33;;;23.88;;
56181;SDS011;51963;46.052;14.544;2023-12-07T14:15:09;67.38;;;23.98;;
56181;SDS011;51963;46.052;14.544;2023-12-07T14:17:35;58.78;;;22.08;;
56181;SDS011;51963;46.052;14.544;2023-12-07T14:20:07;64.65;;;23.77;;
56181;SDS011;51963;46.052;14.544;2023-12-07T14:22:34;60.05;;;23.08;;
56181;SDS011;51963;46.052;14.544;2023-12-07T14:25:00;59.33;;;22.13;;
56181;SDS011;51963;46.052;14.544;2023-12-07T14:27:27;65.00;;;24.20;;
56181;SDS011;51963;46.052;14.544;2023-12-07T14:29:52;67.80;;;22.77;;
56181;SDS011;51963;46.052;14.544;2023-12-07T14:32:18;60.42;;;21.45;;